| time (UTC) | temp F | wind direction | speed MPH | gust MPH | rain 1hr in | rain 24hr in | rain mn in | humidity % | barometer mb |
| 20260509075016 | 37 | 0.0 | 0.0 | 0.00 | 0.03 | 0.00 | 89 | 1009.1 | |
| 20260509074016 | 37 | 0.0 | 0.0 | 0.00 | 0.03 | 0.00 | 89 | 1009.2 | |
| 20260509073036 | 37 | 0.0 | 0.0 | 0.00 | 0.03 | 0.00 | 89 | 1009.4 | |
| 20260509072016 | 37 | 0.0 | 0.0 | 0.00 | 0.03 | 0.00 | 89 | 1009.4 | |
| 20260509071016 | 37 | 0.0 | 0.0 | 0.00 | 0.03 | 0.00 | 89 | 1009.4 | |
| 20260509070016 | 37 | 0.0 | 0.0 | 0.00 | 0.03 | 0.00 | 89 | 1009.5 | |
| 20260509065016 | 37 | 0.0 | 0.0 | 0.00 | 0.03 | 0.00 | 88 | 1009.6 | |
| 20260509064016 | 37 | 0.0 | 0.0 | 0.00 | 0.03 | 0.00 | 88 | 1009.7 | |
| 20260509063016 | 37 | 0.0 | 0.0 | 0.00 | 0.03 | 0.00 | 88 | 1009.9 | |
| 20260509062016 | 38 | 0.0 | 0.0 | 0.00 | 0.03 | 0.00 | 87 | 1010.0 | |
| 20260509061017 | 38 | 0.0 | 0.0 | 0.00 | 0.03 | 0.00 | 87 | 1010.2 | |
| 20260509060016 | 39 | 0.0 | 0.0 | 0.00 | 0.03 | 0.00 | 87 | 1010.2 | |
| 20260509055016 | 39 | 0.0 | 0.0 | 0.00 | 0.03 | 0.00 | 87 | 1010.4 | |
| 20260509054016 | 39 | 0.0 | 0.0 | 0.00 | 0.03 | 0.00 | 86 | 1010.4 | |
| 20260509053036 | 39 | 0.0 | 0.0 | 0.00 | 0.03 | 0.00 | 86 | 1010.5 | |
| 20260509052015 | 40 | 0.0 | 0.0 | 0.00 | 0.03 | 0.00 | 86 | 1010.6 | |
| 20260509051016 | 40 | 0.0 | 0.0 | 0.00 | 0.03 | 0.00 | 87 | 1010.6 | |
| 20260509050016 | 40 | 0.0 | 0.0 | 0.00 | 0.03 | 0.00 | 87 | 1010.6 | |
| 20260509045035 | 40 | 0.0 | 0.0 | 0.00 | 0.03 | 0.00 | 88 | 1010.7 | |
| 20260509044016 | 39 | 0.0 | 0.0 | 0.00 | 0.03 | 0.00 | 88 | 1010.7 | |
| 20260509043016 | 39 | 0.0 | 0.0 | 0.00 | 0.03 | 0.00 | 88 | 1010.9 | |
| 20260509042015 | 40 | 0.0 | 0.0 | 0.00 | 0.04 | 0.00 | 87 | 1011.0 | |
| 20260509041035 | 40 | 0.0 | 0.0 | 0.00 | 0.04 | 0.00 | 87 | 1011.1 | |
| 20260509040111 | 40 | 0.0 | 0.0 | 0.00 | 0.04 | 0.00 | 87 | 1011.1 | |
| 20260509035015 | 40 | 0.0 | 0.0 | 0.00 | 0.04 | 0.04 | 87 | 1011.1 | |
| 20260509034016 | 40 | 0.0 | 0.0 | 0.00 | 0.04 | 0.04 | 86 | 1011.1 | |
| 20260509033015 | 41 | 0.0 | 0.0 | 0.00 | 0.04 | 0.04 | 86 | 1011.2 | |
| 20260509032035 | 41 | 0.0 | 0.0 | 0.00 | 0.04 | 0.04 | 85 | 1011.1 | |
| 20260509031015 | 41 | 0.0 | 0.0 | 0.00 | 0.04 | 0.04 | 85 | 1011.3 | |
| 20260509030017 | 42 | 0.0 | 0.0 | 0.00 | 0.04 | 0.04 | 84 | 1011.3 | |
| 20260509025017 | 42 | 0.0 | 0.0 | 0.00 | 0.04 | 0.04 | 84 | 1011.3 | |
| 20260509024016 | 42 | 0.0 | 0.0 | 0.00 | 0.04 | 0.04 | 83 | 1011.3 | |
| 20260509023017 | 42 | 0.0 | 0.0 | 0.00 | 0.04 | 0.04 | 83 | 1011.2 | |
| 20260509022017 | 43 | 0.0 | 0.0 | 0.00 | 0.04 | 0.04 | 82 | 1011.2 | |
| 20260509021017 | 43 | 0.0 | 0.0 | 0.00 | 0.04 | 0.04 | 81 | 1011.3 | |
| 20260509020016 | 43 | 0.0 | 0.0 | 0.00 | 0.04 | 0.04 | 81 | 1011.3 | |
| 20260509015016 | 44 | 0.0 | 0.0 | 0.00 | 0.04 | 0.04 | 79 | 1011.3 | |
| 20260509014016 | 45 | 0.0 | 0.0 | 0.00 | 0.04 | 0.04 | 78 | 1011.3 | |
| 20260509013017 | 45 | 0.0 | 0.0 | 0.00 | 0.04 | 0.04 | 77 | 1011.3 | |
| 20260509012016 | 45 | 0.0 | 0.0 | 0.00 | 0.04 | 0.04 | 76 | 1011.4 | |
| 20260509011016 | 46 | 0.0 | 0.0 | 0.00 | 0.04 | 0.04 | 75 | 1011.2 | |
| 20260509010016 | 46 | 0.0 | 0.0 | 0.00 | 0.04 | 0.04 | 74 | 1011.0 | |
| 20260509005016 | 47 | 0.0 | 0.0 | 0.00 | 0.04 | 0.04 | 73 | 1010.7 | |
| 20260509004036 | 47 | 0.0 | 0.0 | 0.00 | 0.04 | 0.04 | 71 | 1010.5 | |
| 20260509003016 | 48 | 0.0 | 0.0 | 0.00 | 0.04 | 0.04 | 69 | 1010.5 | |
| 20260509002016 | 49 | 0.0 | 0.0 | 0.00 | 0.04 | 0.04 | 69 | 1010.5 | |
| 20260509001036 | 50 | 0.0 | 0.0 | 0.00 | 0.04 | 0.04 | 66 | 1010.5 | |
| 20260509000016 | 51 | 0.0 | 0.0 | 0.00 | 0.04 | 0.04 | 63 | 1010.4 | |
| 20260508235016 | 51 | 0.0 | 0.0 | 0.00 | 0.04 | 0.04 | 64 | 1010.5 | |
| 20260508234016 | 52 | 0.0 | 0.0 | 0.00 | 0.04 | 0.04 | 59 | 1010.3 | |
| 20260508233016 | 53 | 0.0 | 0.0 | 0.00 | 0.04 | 0.04 | 57 | 1010.4 | |
| 20260508232016 | 53 | 0.0 | 1.0 | 0.00 | 0.04 | 0.04 | 55 | 1010.3 | |
| 20260508231036 | 54 | 0.0 | 0.0 | 0.00 | 0.04 | 0.04 | 55 | 1010.3 | |
| 20260508230016 | 54 | 68 | 1.0 | 1.0 | 0.00 | 0.04 | 0.04 | 54 | 1010.3 |
| 20260508225016 | 55 | 68 | 1.0 | 2.0 | 0.00 | 0.04 | 0.04 | 49 | 1010.3 |
| 20260508224036 | 55 | 45 | 1.0 | 2.0 | 0.00 | 0.04 | 0.04 | 50 | 1010.4 |
| 20260508223037 | 54 | 68 | 1.0 | 1.0 | 0.00 | 0.04 | 0.04 | 51 | 1010.4 |
| 20260508222016 | 54 | 0.0 | 0.0 | 0.00 | 0.04 | 0.04 | 53 | 1010.3 | |
| 20260508221016 | 55 | 68 | 1.0 | 2.0 | 0.00 | 0.04 | 0.04 | 53 | 1010.5 |
| 20260508220016 | 55 | 45 | 1.0 | 3.0 | 0.00 | 0.04 | 0.04 | 51 | 1010.5 |
| 20260508215016 | 55 | 68 | 2.0 | 3.0 | 0.00 | 0.04 | 0.04 | 52 | 1010.5 |
| 20260508214016 | 55 | 68 | 3.0 | 4.0 | 0.00 | 0.04 | 0.04 | 52 | 1010.6 |
| 20260508213016 | 55 | 45 | 4.0 | 6.0 | 0.00 | 0.04 | 0.04 | 52 | 1010.5 |
| 20260508212016 | 55 | 0.0 | 0.0 | 0.00 | 0.04 | 0.04 | 49 | 1010.6 | |
| 20260508211036 | 55 | 0 | 1.0 | 2.0 | 0.00 | 0.04 | 0.04 | 57 | 1010.6 |
| 20260508210016 | 55 | 68 | 1.0 | 2.0 | 0.00 | 0.04 | 0.04 | 55 | 1010.6 |
| 20260508205017 | 55 | 23 | 1.0 | 2.0 | 0.00 | 0.04 | 0.04 | 55 | 1010.7 |
| 20260508204016 | 55 | 45 | 2.0 | 4.0 | 0.00 | 0.04 | 0.04 | 56 | 1010.7 |
| 20260508203016 | 55 | 45 | 1.0 | 2.0 | 0.00 | 0.04 | 0.04 | 56 | 1010.9 |
| 20260508202016 | 54 | 0.0 | 2.0 | 0.00 | 0.04 | 0.04 | 56 | 1011.1 | |
| 20260508201016 | 55 | 0 | 2.0 | 4.0 | 0.00 | 0.04 | 0.04 | 55 | 1011.2 |
| 20260508200036 | 56 | 293 | 1.0 | 3.0 | 0.00 | 0.04 | 0.04 | 46 | 1011.3 |
| 20260508195035 | 58 | 203 | 3.0 | 6.0 | 0.00 | 0.04 | 0.04 | 46 | 1011.3 |
| 20260508194036 | 56 | 225 | 1.0 | 3.0 | 0.00 | 0.04 | 0.04 | 46 | 1011.4 |
| 20260508193016 | 58 | 315 | 2.0 | 3.0 | 0.00 | 0.04 | 0.04 | 43 | 1011.5 |
| 20260508192035 | 57 | 180 | 1.0 | 2.0 | 0.00 | 0.04 | 0.04 | 48 | 1011.7 |
| 20260508191016 | 55 | 315 | 1.0 | 6.0 | 0.00 | 0.04 | 0.04 | 50 | 1011.6 |
| 20260508190016 | 57 | 225 | 5.0 | 8.0 | 0.00 | 0.04 | 0.04 | 47 | 1011.8 |
| 20260508185036 | 58 | 225 | 3.0 | 4.0 | 0.00 | 0.04 | 0.04 | 48 | 1011.7 |
| 20260508184117 | 57 | 203 | 2.0 | 4.0 | 0.00 | 0.04 | 0.04 | 53 | 1011.8 |
| 20260508183015 | 56 | 225 | 5.0 | 10.0 | 0.00 | 0.04 | 0.04 | 53 | 1011.8 |
| 20260508182016 | 56 | 338 | 2.0 | 6.0 | 0.00 | 0.04 | 0.04 | 49 | 1012.0 |
| 20260508181035 | 56 | 225 | 1.0 | 2.0 | 0.00 | 0.04 | 0.04 | 56 | 1012.1 |
| 20260508180015 | 55 | 203 | 1.0 | 3.0 | 0.00 | 0.04 | 0.04 | 61 | 1012.1 |
| 20260508175035 | 56 | 225 | 1.0 | 2.0 | 0.00 | 0.04 | 0.04 | 56 | 1012.2 |
| 20260508174016 | 55 | 203 | 3.0 | 4.0 | 0.00 | 0.04 | 0.04 | 60 | 1012.2 |
| 20260508173015 | 55 | 180 | 1.0 | 3.0 | 0.00 | 0.04 | 0.04 | 63 | 1012.4 |
| 20260508172015 | 54 | 315 | 2.0 | 3.0 | 0.00 | 0.04 | 0.04 | 57 | 1012.4 |
| 20260508171016 | 54 | 338 | 1.0 | 3.0 | 0.00 | 0.04 | 0.04 | 65 | 1012.4 |
| 20260508170015 | 52 | 203 | 5.0 | 7.0 | 0.00 | 0.04 | 0.04 | 62 | 1012.5 |
| 20260508165015 | 53 | 113 | 1.0 | 2.0 | 0.00 | 0.04 | 0.04 | 68 | 1012.6 |
| 20260508164015 | 54 | 315 | 2.0 | 5.0 | 0.00 | 0.04 | 0.04 | 68 | 1012.8 |
| 20260508163015 | 51 | 293 | 1.0 | 1.0 | 0.00 | 0.04 | 0.04 | 66 | 1012.9 |
| 20260508162035 | 54 | 338 | 2.0 | 3.0 | 0.00 | 0.04 | 0.04 | 71 | 1013.0 |
| 20260508161015 | 50 | 315 | 1.0 | 2.0 | 0.00 | 0.04 | 0.04 | 72 | 1013.1 |
| 20260508160035 | 49 | 225 | 4.0 | 8.0 | 0.00 | 0.04 | 0.04 | 69 | 1013.2 |
| 20260508155016 | 50 | 203 | 4.0 | 6.0 | 0.00 | 0.04 | 0.04 | 72 | 1013.1 |
| 20260508154015 | 50 | 203 | 2.0 | 7.0 | 0.00 | 0.04 | 0.04 | 74 | 1013.1 |
| 20260508153015 | 50 | 225 | 3.0 | 7.0 | 0.00 | 0.04 | 0.04 | 79 | 1013.1 |
| 20260508152015 | 49 | 315 | 1.0 | 5.0 | 0.00 | 0.04 | 0.04 | 75 | 1013.0 |
| 20260508151035 | 49 | 180 | 3.0 | 4.0 | 0.00 | 0.04 | 0.04 | 78 | 1013.1 |
| 20260508150015 | 49 | 203 | 4.0 | 10.0 | 0.00 | 0.04 | 0.04 | 79 | 1012.9 |
| 20260508145015 | 47 | 180 | 3.0 | 7.0 | 0.00 | 0.04 | 0.04 | 81 | 1012.9 |
| 20260508144015 | 46 | 180 | 4.0 | 8.0 | 0.00 | 0.04 | 0.04 | 82 | 1012.8 |
| 20260508143015 | 46 | 225 | 2.0 | 4.0 | 0.00 | 0.04 | 0.04 | 83 | 1012.8 |
| 20260508142015 | 47 | 180 | 1.0 | 2.0 | 0.00 | 0.04 | 0.04 | 87 | 1012.8 |
| 20260508141015 | 45 | 180 | 3.0 | 4.0 | 0.00 | 0.04 | 0.04 | 88 | 1012.9 |
| 20260508140015 | 43 | 248 | 1.0 | 2.0 | 0.00 | 0.04 | 0.04 | 89 | 1012.9 |
| 20260508135015 | 42 | 203 | 2.0 | 5.0 | 0.01 | 0.04 | 0.04 | 89 | 1013.2 |
| 20260508134015 | 43 | 0.0 | 0.0 | 0.01 | 0.04 | 0.04 | 90 | 1013.1 | |
| 20260508133037 | 43 | 0.0 | 0.0 | 0.01 | 0.04 | 0.04 | 91 | 1013.2 | |
| 20260508132015 | 43 | 0 | 1.0 | 3.0 | 0.02 | 0.04 | 0.04 | 92 | 1013.1 |
| 20260508131015 | 43 | 203 | 2.0 | 4.0 | 0.02 | 0.04 | 0.04 | 93 | 1013.0 |
| 20260508130015 | 42 | 0.0 | 0.0 | 0.02 | 0.04 | 0.04 | 93 | 1013.0 | |
| 20260508125015 | 42 | 0.0 | 1.0 | 0.01 | 0.03 | 0.03 | 93 | 1013.0 | |
| 20260508124014 | 41 | 0.0 | 1.0 | 0.01 | 0.03 | 0.03 | 93 | 1012.9 | |
| 20260508123018 | 42 | 248 | 1.0 | 2.0 | 0.01 | 0.03 | 0.03 | 94 | 1012.8 |
| 20260508122017 | 42 | 135 | 2.0 | 5.0 | 0.00 | 0.02 | 0.02 | 94 | 1012.8 |
| 20260508121017 | 42 | 0.0 | 1.0 | 0.00 | 0.02 | 0.02 | 94 | 1012.5 | |
| 20260508120017 | 42 | 0.0 | 0.0 | 0.00 | 0.02 | 0.02 | 94 | 1012.4 | |
| 20260508115017 | 42 | 0.0 | 0.0 | 0.00 | 0.02 | 0.02 | 95 | 1012.2 | |
| 20260508114037 | 42 | 0.0 | 0.0 | 0.00 | 0.02 | 0.02 | 94 | 1012.0 | |
| 20260508113037 | 41 | 0.0 | 0.0 | 0.00 | 0.02 | 0.02 | 95 | 1011.9 | |
| 20260508112017 | 41 | 0.0 | 0.0 | 0.01 | 0.02 | 0.02 | 94 | 1011.9 | |
| 20260508111017 | 41 | 0.0 | 0.0 | 0.01 | 0.02 | 0.02 | 95 | 1011.7 | |
| 20260508110037 | 41 | 0.0 | 0.0 | 0.01 | 0.02 | 0.02 | 95 | 1011.6 | |
| 20260508105017 | 40 | 0.0 | 0.0 | 0.01 | 0.02 | 0.02 | 94 | 1011.6 | |
| 20260508104036 | 40 | 0.0 | 0.0 | 0.01 | 0.02 | 0.02 | 94 | 1011.5 | |
| 20260508103017 | 40 | 0.0 | 0.0 | 0.01 | 0.02 | 0.02 | 94 | 1011.5 | |
| 20260508102016 | 40 | 0.0 | 0.0 | 0.00 | 0.01 | 0.01 | 94 | 1011.5 | |
| 20260508101017 | 40 | 0.0 | 0.0 | 0.00 | 0.01 | 0.01 | 94 | 1011.4 | |
| 20260508100016 | 40 | 0.0 | 0.0 | 0.00 | 0.01 | 0.01 | 94 | 1011.6 | |
| 20260508095016 | 39 | 0.0 | 0.0 | 0.00 | 0.01 | 0.01 | 94 | 1011.9 | |
| 20260508094016 | 39 | 0.0 | 0.0 | 0.00 | 0.01 | 0.01 | 94 | 1011.9 | |
| 20260508093016 | 39 | 0.0 | 1.0 | 0.00 | 0.01 | 0.01 | 94 | 1012.0 | |
| 20260508092016 | 39 | 0.0 | 0.0 | 0.00 | 0.01 | 0.01 | 94 | 1011.9 | |
| 20260508091016 | 39 | 0.0 | 0.0 | 0.00 | 0.01 | 0.01 | 94 | 1012.0 | |
| 20260508090016 | 38 | 0.0 | 0.0 | 0.00 | 0.01 | 0.01 | 94 | 1012.1 | |
| 20260508085016 | 38 | 0.0 | 0.0 | 0.00 | 0.01 | 0.01 | 94 | 1012.0 | |
| 20260508084016 | 38 | 0.0 | 0.0 | 0.00 | 0.01 | 0.01 | 93 | 1012.0 | |
| 20260508083016 | 38 | 0.0 | 0.0 | 0.00 | 0.01 | 0.01 | 93 | 1011.8 | |
| 20260508082016 | 38 | 0.0 | 0.0 | 0.00 | 0.01 | 0.01 | 93 | 1011.8 | |
| 20260508081016 | 38 | 0.0 | 0.0 | 0.00 | 0.01 | 0.01 | 93 | 1011.8 | |
| 20260508080036 | 38 | 0.0 | 0.0 | 0.00 | 0.01 | 0.01 | 93 | 1011.9 |